Estación Meteorológica Peña el Pijo (Robertgarden) [ 01/30/23 14:18:31 CET ]

Fecha Hora Presion(HPa) Temp (°C) Humedad % Rocio (°C) Viento ( m/s) Direccion Lluvia 1Hora(mm) Lluvia 24H(mm) LLuvia Total(mm)
2012-Oct-08 01:01:13 1017.200 12.1 77 8.2         178.19
2012-Oct-08 02:01:12 1017.000 11.5 78 7.8         178.19
2012-Oct-08 03:03:25 1016.700 10.7 81 7.6         178.19
2012-Oct-08 04:01:16 1016.100 9.9 82 6.9         178.19
2012-Oct-08 05:01:13 1015.700 9.6 83 6.8         178.19
2012-Oct-08 06:01:12 1015.200 9.6 83 6.8         178.19
2012-Oct-08 07:01:14 1015.500 9.0 84 6.4         178.19
2012-Oct-08 08:01:17 1015.600 9.2 85 6.8         178.19
2012-Oct-08 09:01:14 1015.800 8.9 86 6.7         178.19
2012-Oct-08 10:01:13 1016.000 16.5 71 11.2         178.19
2012-Oct-08 11:01:14 1015.900 22.9 53 12.8         178.19
2012-Oct-08 12:01:15 1015.600 26.3 45 13.4         178.19
2012-Oct-08 13:01:16 1015.200 28.9 22 4.9         178.19
2012-Oct-08 14:01:12 1014.600 31.0 25 8.4         178.19
2012-Oct-08 15:01:14 1014.100 31.3 22 6.9         178.19
2012-Oct-08 16:01:14 1013.800 32.5 21 7.3         178.19
2012-Oct-08 17:01:12 1013.800 31.1 21 6.2         178.19
2012-Oct-08 18:01:14 1013.800 29.9 21 5.1         178.19
2012-Oct-08 19:01:14 1014.100 24.8 24 2.6         178.19
2012-Oct-08 20:01:18 1014.300 19.6 37 4.4         178.19
2012-Oct-08 21:01:16 1014.800 16.1 47 4.7         178.19
2012-Oct-08 22:01:13 1015.300 14.7 52 5.0         178.19
2012-Oct-08 23:01:14 1015.300 14.4 53 4.9         178.19

Temperatura Máxima:32°    Temperatura Mínima:
Presión Máxima:1017.200 Hpa    Presión Mínima:1013.800 Hpa


Volver